createdAt,value
2023-02-11T00:00:43.108Z,98.58
2023-02-11T00:03:13.491Z,98.33
2023-02-11T00:05:43.814Z,98.09
2023-02-11T00:08:16.958Z,97.92
2023-02-11T00:10:47.462Z,98.05
2023-02-11T00:13:17.982Z,98.18
2023-02-11T00:15:48.588Z,98.03
2023-02-11T00:18:19.213Z,98.02
2023-02-11T00:20:49.680Z,97.98
2023-02-11T00:23:20.338Z,97.66
2023-02-11T00:25:51.462Z,97.88
2023-02-11T00:28:22.062Z,97.52
2023-02-11T00:30:59.091Z,97.38
2023-02-11T00:33:29.606Z,97.27
2023-02-11T00:36:00.000Z,97.04
2023-02-11T00:38:30.384Z,96.85
2023-02-11T00:41:00.810Z,96.54
2023-02-11T00:43:31.318Z,96.61
2023-02-11T00:46:01.717Z,96.40
2023-02-11T00:48:34.461Z,96.66
2023-02-11T00:51:05.826Z,96.84
2023-02-11T00:53:35.006Z,97.11
2023-02-11T00:56:06.588Z,97.05
2023-02-11T00:58:37.124Z,97.17
2023-02-11T01:01:07.775Z,97.10
2023-02-11T01:03:38.224Z,96.95
2023-02-11T01:06:09.767Z,97.35
2023-02-11T01:08:41.370Z,97.59
2023-02-11T01:11:16.747Z,97.33
2023-02-11T01:13:50.201Z,97.23
2023-02-11T01:16:22.548Z,97.39
2023-02-11T01:18:52.982Z,97.60
2023-02-11T01:21:23.408Z,97.45
2023-02-11T01:23:54.669Z,97.41
2023-02-11T01:26:25.193Z,97.47
2023-02-11T01:28:55.827Z,97.59
2023-02-11T01:31:26.268Z,97.63
2023-02-11T01:33:56.729Z,97.76
2023-02-11T01:36:26.956Z,97.65
2023-02-11T01:38:57.355Z,97.81
2023-02-11T01:41:27.693Z,97.63
2023-02-11T01:44:14.555Z,97.19
2023-02-11T01:46:45.059Z,97.13
2023-02-11T01:49:20.153Z,97.15
2023-02-11T01:51:56.231Z,97.19
2023-02-11T01:54:49.202Z,97.05
2023-02-11T01:57:24.949Z,96.99
2023-02-11T02:00:05.901Z,96.77
2023-02-11T02:02:53.811Z,97.03
2023-02-11T02:05:31.956Z,97.06
2023-02-11T02:08:12.042Z,96.87
2023-02-11T02:10:46.739Z,96.73
2023-02-11T02:13:18.328Z,96.57
2023-02-11T02:15:53.377Z,96.51
2023-02-11T02:18:36.952Z,96.51
2023-02-11T02:21:47.066Z,97.16
2023-02-11T02:24:44.494Z,97.50
2023-02-11T02:27:42.222Z,97.58
2023-02-11T02:30:35.808Z,97.23
2023-02-11T02:33:23.677Z,96.79
2023-02-11T02:36:07.227Z,96.13
2023-02-11T02:38:45.046Z,95.56
2023-02-11T02:41:18.786Z,95.17
2023-02-11T02:43:52.054Z,94.82
2023-02-11T02:46:24.826Z,94.35
2023-02-11T02:48:56.575Z,93.85
2023-02-11T02:51:53.349Z,93.58
2023-02-11T02:54:38.059Z,93.36
2023-02-11T02:57:21.442Z,92.86
2023-02-11T03:00:02.790Z,92.57
2023-02-11T03:02:39.199Z,92.54
2023-02-11T03:05:17.330Z,92.06
2023-02-11T03:07:56.524Z,92.05
2023-02-11T03:10:29.978Z,92.20
2023-02-11T03:13:02.054Z,92.35
2023-02-11T03:15:38.587Z,92.11
2023-02-11T03:18:13.068Z,91.91
2023-02-11T03:20:46.533Z,91.90
2023-02-11T03:23:23.676Z,92.00
2023-02-11T03:25:57.864Z,91.99
2023-02-11T03:28:33.883Z,91.80
2023-02-11T03:31:14.597Z,91.66
2023-02-11T03:33:55.521Z,91.60
2023-02-11T03:36:32.710Z,91.18
2023-02-11T03:39:06.322Z,91.28
2023-02-11T03:41:38.728Z,91.01
2023-02-11T03:44:11.556Z,91.12
2023-02-11T03:46:48.328Z,91.02
2023-02-11T03:49:22.877Z,91.06
2023-02-11T03:51:54.853Z,90.82
2023-02-11T03:54:30.318Z,90.91
2023-02-11T03:57:03.346Z,90.82
2023-02-11T03:59:33.679Z,90.51
2023-02-11T04:02:03.961Z,90.09
2023-02-11T04:04:34.371Z,90.25
2023-02-11T04:07:04.670Z,90.13
2023-02-11T04:09:36.154Z,89.46
2023-02-11T04:12:07.439Z,89.68
2023-02-11T04:14:38.049Z,89.27
2023-02-11T04:17:08.554Z,88.98
2023-02-11T04:19:39.181Z,88.46
2023-02-11T04:22:09.843Z,88.64
2023-02-11T04:24:40.445Z,88.75
2023-02-11T04:27:10.814Z,88.37
2023-02-11T04:29:41.270Z,88.26
2023-02-11T04:32:12.217Z,88.09
2023-02-11T04:34:42.903Z,88.38
2023-02-11T04:37:13.206Z,88.41
2023-02-11T04:39:43.664Z,88.46
2023-02-11T04:42:14.118Z,88.45
2023-02-11T04:44:44.614Z,88.75
2023-02-11T04:47:15.405Z,88.92
2023-02-11T04:49:46.064Z,88.99
2023-02-11T04:52:16.462Z,89.26
2023-02-11T04:54:46.923Z,88.90
2023-02-11T04:57:17.448Z,89.06
2023-02-11T04:59:48.827Z,89.18
2023-02-11T05:02:17.705Z,89.19
2023-02-11T05:04:48.393Z,89.52
2023-02-11T05:07:18.785Z,89.20
2023-02-11T05:09:49.253Z,89.41
2023-02-11T05:12:19.778Z,89.55
2023-02-11T05:14:50.170Z,89.74
2023-02-11T05:17:20.619Z,89.93
2023-02-11T05:19:51.135Z,90.05
2023-02-11T05:22:22.117Z,90.16
2023-02-11T05:24:52.980Z,90.70
2023-02-11T05:27:23.689Z,91.53
2023-02-11T05:29:54.074Z,93.81
2023-02-11T05:32:24.525Z,95.33
2023-02-11T05:34:54.925Z,94.94
2023-02-11T05:37:25.366Z,94.57
2023-02-11T05:39:55.812Z,94.16
2023-02-11T05:42:26.166Z,94.08
2023-02-11T05:44:56.580Z,94.06
2023-02-11T05:47:27.066Z,94.14
2023-02-11T05:49:57.573Z,94.31
2023-02-11T05:52:27.946Z,94.76
2023-02-11T05:54:58.266Z,94.56
2023-02-11T05:57:28.655Z,94.89
2023-02-11T05:59:58.974Z,95.03
2023-02-11T06:02:29.394Z,95.48
2023-02-11T06:04:59.959Z,95.82
2023-02-11T06:07:30.327Z,95.68
2023-02-11T06:10:00.729Z,95.52
2023-02-11T06:12:31.259Z,95.74
2023-02-11T06:15:01.649Z,95.90
2023-02-11T06:17:33.813Z,95.94
2023-02-11T06:20:05.292Z,95.83
2023-02-11T06:22:35.786Z,96.50
2023-02-11T06:25:07.030Z,97.11
2023-02-11T06:27:37.329Z,97.05
2023-02-11T06:30:09.918Z,97.19
2023-02-11T06:32:44.555Z,96.98
2023-02-11T06:35:16.119Z,96.98
2023-02-11T06:37:46.858Z,96.88
2023-02-11T06:40:17.469Z,96.95
2023-02-11T06:42:47.875Z,97.24
2023-02-11T06:45:19.073Z,97.10
2023-02-11T06:47:52.183Z,97.43
2023-02-11T06:50:22.928Z,97.54
2023-02-11T06:52:53.270Z,97.36
2023-02-11T06:55:23.807Z,97.00
2023-02-11T06:57:54.182Z,96.94
2023-02-11T07:00:33.684Z,96.86
2023-02-11T07:03:06.501Z,96.63
2023-02-11T07:05:38.772Z,96.42
2023-02-11T07:08:09.255Z,96.27
2023-02-11T07:10:39.697Z,96.27
2023-02-11T07:13:10.342Z,96.18
2023-02-11T07:15:42.287Z,95.76
2023-02-11T07:18:14.680Z,95.76
2023-02-11T07:20:45.380Z,95.80
2023-02-11T07:23:15.737Z,95.87
2023-02-11T07:25:46.186Z,95.46
2023-02-11T07:28:17.527Z,95.19
2023-02-11T07:30:46.438Z,94.55
2023-02-11T07:33:16.897Z,94.15
2023-02-11T07:35:47.303Z,93.70
2023-02-11T07:38:17.970Z,93.31
2023-02-11T07:40:48.327Z,92.97
2023-02-11T07:43:18.761Z,92.49
2023-02-11T07:45:49.495Z,92.40
2023-02-11T07:48:20.223Z,92.16
2023-02-11T07:50:51.057Z,91.46
2023-02-11T07:53:21.424Z,91.40
2023-02-11T07:55:52.321Z,91.67
2023-02-11T07:58:22.939Z,91.34
2023-02-11T08:00:54.121Z,91.03
2023-02-11T08:03:24.649Z,90.35
2023-02-11T08:05:55.113Z,90.39
2023-02-11T08:08:26.830Z,89.62
2023-02-11T08:10:57.299Z,89.48
2023-02-11T08:13:29.942Z,88.88
2023-02-11T08:16:01.831Z,88.14
2023-02-11T08:18:33.314Z,87.71
2023-02-11T08:21:08.399Z,87.73
2023-02-11T08:23:41.125Z,87.30
2023-02-11T08:26:15.429Z,86.25
2023-02-11T08:28:48.003Z,85.59
2023-02-11T08:31:21.823Z,85.53
2023-02-11T08:33:54.584Z,85.17
2023-02-11T08:36:29.053Z,84.70
2023-02-11T08:39:17.513Z,84.09
2023-02-11T08:41:49.876Z,83.03
2023-02-11T08:44:19.283Z,82.86
2023-02-11T08:46:50.744Z,83.00
2023-02-11T08:49:20.134Z,82.92
2023-02-11T08:51:50.656Z,82.69
2023-02-11T08:54:21.241Z,82.76
2023-02-11T08:56:53.488Z,82.85
2023-02-11T08:59:23.945Z,82.37
2023-02-11T09:01:54.511Z,82.01
2023-02-11T09:04:25.140Z,82.21
2023-02-11T09:06:55.975Z,82.29
2023-02-11T09:09:26.413Z,82.05
2023-02-11T09:11:57.436Z,82.07
2023-02-11T09:14:28.352Z,81.97
2023-02-11T09:16:58.846Z,81.73
2023-02-11T09:19:29.710Z,81.73
2023-02-11T09:22:00.619Z,81.40
2023-02-11T09:24:31.113Z,80.73
2023-02-11T09:27:01.616Z,80.69
2023-02-11T09:29:32.405Z,80.00
2023-02-11T09:32:09.361Z,79.19
2023-02-11T09:34:41.739Z,78.56
2023-02-11T09:37:12.357Z,77.78
2023-02-11T09:39:42.785Z,77.70
2023-02-11T09:42:40.108Z,77.37
2023-02-11T09:45:19.322Z,76.49
2023-02-11T09:47:58.019Z,76.35
2023-02-11T09:50:35.138Z,76.25
2023-02-11T09:53:15.488Z,76.07
2023-02-11T09:55:49.056Z,75.23
2023-02-11T09:58:25.847Z,75.81
2023-02-11T10:01:06.454Z,75.40
2023-02-11T10:04:00.947Z,74.14
2023-02-11T10:06:50.587Z,74.19
2023-02-11T10:09:49.161Z,73.93
2023-02-11T10:12:45.995Z,73.24
2023-02-11T10:15:26.058Z,72.77
2023-02-11T10:18:17.324Z,72.66
2023-02-11T10:20:59.460Z,72.49
2023-02-11T10:23:35.411Z,72.08
2023-02-11T10:26:13.124Z,72.23
2023-02-11T10:28:49.152Z,72.12
2023-02-11T10:31:29.368Z,71.37
2023-02-11T10:34:20.712Z,70.50
2023-02-11T10:37:23.341Z,70.08
2023-02-11T10:39:58.520Z,69.83
2023-02-11T10:42:42.589Z,69.82
2023-02-11T10:45:23.363Z,69.29
2023-02-11T10:47:55.274Z,69.13
2023-02-11T10:50:37.120Z,69.35
2023-02-11T10:53:21.001Z,70.10
2023-02-11T10:55:57.366Z,69.57
2023-02-11T10:58:32.661Z,69.76
2023-02-11T11:01:08.034Z,70.47
2023-02-11T11:03:50.890Z,70.92
2023-02-11T11:06:32.429Z,70.69
2023-02-11T11:09:02.093Z,69.72
2023-02-11T11:11:32.533Z,69.60
2023-02-11T11:14:03.684Z,69.60
2023-02-11T11:16:34.969Z,70.02
2023-02-11T11:19:26.436Z,70.12
2023-02-11T11:21:57.658Z,69.71
2023-02-11T11:24:44.057Z,70.46
2023-02-11T11:27:22.607Z,70.40
2023-02-11T11:29:56.388Z,69.90
2023-02-11T11:32:32.236Z,69.90
2023-02-11T11:35:07.681Z,70.07
2023-02-11T11:37:39.885Z,68.80
2023-02-11T11:42:21.183Z,69.12
2023-02-11T11:44:24.173Z,68.85
2023-02-11T11:47:10.556Z,68.28
2023-02-11T11:49:46.595Z,68.79
2023-02-11T11:52:34.597Z,68.53
2023-02-11T11:55:12.877Z,68.25
2023-02-11T11:57:44.491Z,68.22
2023-02-11T12:00:21.046Z,67.58
2023-02-11T12:03:26.743Z,67.27
2023-02-11T12:06:22.004Z,67.40
2023-02-11T12:09:03.424Z,67.40
2023-02-11T12:11:46.937Z,67.72
2023-02-11T12:14:30.702Z,67.28
2023-02-11T12:17:10.409Z,67.62
2023-02-11T12:20:05.581Z,66.06
2023-02-11T12:22:46.407Z,66.23
2023-02-11T12:25:27.957Z,66.34
2023-02-11T12:28:17.994Z,66.72
2023-02-11T12:31:05.711Z,66.57
2023-02-11T12:34:07.817Z,67.35
2023-02-11T12:36:55.272Z,67.57
2023-02-11T12:39:42.270Z,67.64
2023-02-11T12:43:02.462Z,67.74
2023-02-11T12:46:01.411Z,67.76
2023-02-11T12:48:54.316Z,67.47
2023-02-11T12:51:46.356Z,67.74
2023-02-11T12:54:26.676Z,67.90
2023-02-11T12:57:03.915Z,68.09
2023-02-11T12:59:46.553Z,67.56
2023-02-11T13:02:23.657Z,67.80
2023-02-11T13:04:58.674Z,67.89
2023-02-11T13:07:36.773Z,67.91
2023-02-11T13:10:17.861Z,67.49
2023-02-11T13:13:23.620Z,67.85
2023-02-11T13:16:00.961Z,68.78
2023-02-11T13:18:44.966Z,68.72
2023-02-11T13:21:30.837Z,69.41
2023-02-11T13:24:11.032Z,69.49
2023-02-11T13:26:48.650Z,69.73
2023-02-11T13:29:27.551Z,70.18
2023-02-11T13:32:08.101Z,70.74
2023-02-11T13:35:07.261Z,70.34
2023-02-11T13:37:40.429Z,70.34
2023-02-11T13:40:27.550Z,70.42
2023-02-11T13:43:00.273Z,71.01
2023-02-11T13:45:35.586Z,70.64
2023-02-11T13:48:09.988Z,70.86
2023-02-11T13:50:51.042Z,70.96
2023-02-11T13:53:22.785Z,70.95
2023-02-11T13:56:04.965Z,71.24
2023-02-11T13:58:47.689Z,71.80
2023-02-11T14:01:42.486Z,71.82
2023-02-11T14:04:43.929Z,72.29
2023-02-11T14:07:49.444Z,72.43
2023-02-11T14:10:52.414Z,72.82
2023-02-11T14:13:26.265Z,72.82
2023-02-11T14:16:22.547Z,73.32
2023-02-11T14:19:03.612Z,73.46
2023-02-11T14:21:37.469Z,73.56
2023-02-11T14:24:57.581Z,73.84
2023-02-11T14:27:33.172Z,74.44
2023-02-11T14:30:21.663Z,75.98
2023-02-11T14:33:12.059Z,76.24
2023-02-11T14:35:51.526Z,76.43
2023-02-11T14:38:30.215Z,76.71
2023-02-11T14:41:07.776Z,76.72
2023-02-11T14:43:45.481Z,76.91
2023-02-11T14:46:20.785Z,76.55
2023-02-11T14:48:55.185Z,76.71
2023-02-11T14:51:28.889Z,77.21
2023-02-11T14:54:03.629Z,77.29
2023-02-11T14:56:36.320Z,77.63
2023-02-11T14:59:20.087Z,77.61
2023-02-11T15:01:54.499Z,78.08
2023-02-11T15:04:30.644Z,78.25
2023-02-11T15:07:06.958Z,79.18
2023-02-11T15:09:43.062Z,79.22
2023-02-11T15:12:23.649Z,79.44
2023-02-11T15:14:56.338Z,79.92
2023-02-11T15:17:30.496Z,80.04
2023-02-11T15:20:04.088Z,80.37
2023-02-11T15:22:37.399Z,80.67
2023-02-11T15:25:14.885Z,80.70
2023-02-11T15:27:48.801Z,80.91
2023-02-11T15:30:31.685Z,81.33
2023-02-11T15:33:06.080Z,81.43
2023-02-11T15:35:39.383Z,81.57
2023-02-11T15:38:12.378Z,81.88
2023-02-11T15:40:52.533Z,81.81
2023-02-11T15:43:23.288Z,82.02
2023-02-11T15:46:02.376Z,82.08
2023-02-11T15:48:43.084Z,82.29
2023-02-11T15:51:22.728Z,82.27
2023-02-11T15:53:58.580Z,82.49
2023-02-11T15:56:33.082Z,82.33
2023-02-11T15:59:16.390Z,82.57
2023-02-11T16:01:48.554Z,82.77
2023-02-11T16:04:22.255Z,83.27
2023-02-11T16:06:53.462Z,83.39
2023-02-11T16:09:32.441Z,83.59
2023-02-11T16:12:07.391Z,83.60
2023-02-11T16:14:39.395Z,84.00
2023-02-11T16:17:12.118Z,84.13
2023-02-11T16:19:51.803Z,84.38
2023-02-11T16:22:27.301Z,84.71
2023-02-11T16:24:59.912Z,84.62
2023-02-11T16:27:36.550Z,84.92
2023-02-11T16:30:23.352Z,85.01
2023-02-11T16:32:55.828Z,85.15
2023-02-11T16:35:26.157Z,85.32
2023-02-11T16:37:56.833Z,85.46
2023-02-11T16:40:28.238Z,85.76
2023-02-11T16:42:57.313Z,85.78
2023-02-11T16:45:27.911Z,85.92
2023-02-11T16:47:58.499Z,85.98
2023-02-11T16:50:30.151Z,86.28
2023-02-11T16:53:02.177Z,86.25
2023-02-11T16:55:32.985Z,86.34
2023-02-11T16:58:03.832Z,86.49
2023-02-11T17:00:34.281Z,86.96
2023-02-11T17:03:08.820Z,87.11
2023-02-11T17:05:54.425Z,87.14
2023-02-11T17:08:25.850Z,87.40
2023-02-11T17:10:56.432Z,87.60
2023-02-11T17:13:27.030Z,87.88
2023-02-11T17:15:57.716Z,88.06
2023-02-11T17:18:31.657Z,88.08
2023-02-11T17:21:07.115Z,88.48
2023-02-11T17:23:37.897Z,88.55
2023-02-11T17:26:08.613Z,88.50
2023-02-11T17:28:39.116Z,88.58
2023-02-11T17:31:11.613Z,88.65
2023-02-11T17:33:42.709Z,88.89
2023-02-11T17:36:13.612Z,89.23
2023-02-11T17:38:44.743Z,89.63
2023-02-11T17:41:15.447Z,89.66
2023-02-11T17:43:49.088Z,89.71
2023-02-11T17:46:19.602Z,89.97
2023-02-11T17:48:50.388Z,89.89
2023-02-11T17:51:29.905Z,89.82
2023-02-11T17:54:09.405Z,89.96
2023-02-11T17:56:40.518Z,90.00
2023-02-11T17:59:15.348Z,90.22
2023-02-11T18:01:48.444Z,90.04
2023-02-11T18:04:20.457Z,90.34
2023-02-11T18:06:53.583Z,90.53
2023-02-11T18:09:24.115Z,90.48
2023-02-11T18:11:54.643Z,90.63
2023-02-11T18:14:25.452Z,90.89
2023-02-11T18:16:55.900Z,90.96
2023-02-11T18:19:30.483Z,91.32
2023-02-11T18:22:03.789Z,91.62
2023-02-11T18:24:34.315Z,91.19
2023-02-11T18:27:05.385Z,91.18
2023-02-11T18:29:36.531Z,91.05
2023-02-11T18:32:07.306Z,91.19
2023-02-11T18:34:37.776Z,91.26
2023-02-11T18:38:29.396Z,91.39
2023-02-11T18:40:42.700Z,91.43
2023-02-11T18:43:15.804Z,91.46
2023-02-11T18:45:47.088Z,91.56
2023-02-11T18:48:16.395Z,91.86
2023-02-11T18:50:48.414Z,91.66
2023-02-11T18:53:18.830Z,91.85
2023-02-11T18:55:49.893Z,91.77
2023-02-11T18:58:21.422Z,91.87
2023-02-11T19:00:52.217Z,92.02
2023-02-11T19:03:22.798Z,91.97
2023-02-11T19:05:56.340Z,92.09
2023-02-11T19:08:26.683Z,92.12
2023-02-11T19:10:56.993Z,92.31
2023-02-11T19:13:29.180Z,92.23
2023-02-11T19:15:59.684Z,92.35
2023-02-11T19:18:30.190Z,92.26
2023-02-11T19:21:00.598Z,92.58
2023-02-11T19:23:31.063Z,92.58
2023-02-11T19:26:04.511Z,92.48
2023-02-11T19:28:37.108Z,92.53
2023-02-11T19:31:11.971Z,92.69
2023-02-11T19:33:42.353Z,92.74
2023-02-11T19:36:16.356Z,92.80
2023-02-11T19:38:47.662Z,92.67
2023-02-11T19:41:22.070Z,92.84
2023-02-11T19:43:53.585Z,93.25
2023-02-11T19:46:25.247Z,93.27
2023-02-11T19:48:56.415Z,93.11
2023-02-11T19:51:26.885Z,93.07
2023-02-11T19:53:58.957Z,93.09
2023-02-11T19:56:32.059Z,93.10
2023-02-11T19:59:04.128Z,93.28
2023-02-11T20:01:34.668Z,93.41
2023-02-11T20:04:05.394Z,93.21
2023-02-11T20:06:36.305Z,93.45
2023-02-11T20:09:13.906Z,93.47
2023-02-11T20:11:45.326Z,93.59
2023-02-11T20:14:15.922Z,93.59
2023-02-11T20:16:49.778Z,93.50
2023-02-11T20:19:22.952Z,93.34
2023-02-11T20:21:56.223Z,93.61
2023-02-11T20:24:27.567Z,93.64
2023-02-11T20:26:56.875Z,93.85
2023-02-11T20:29:31.341Z,93.81
2023-02-11T20:32:02.957Z,93.64
2023-02-11T20:34:33.541Z,94.17
2023-02-11T20:37:04.052Z,93.95
2023-02-11T20:39:35.432Z,93.95
2023-02-11T20:42:04.464Z,94.05
2023-02-11T20:44:37.973Z,94.23
2023-02-11T20:47:08.632Z,94.36
2023-02-11T20:49:39.110Z,94.23
2023-02-11T20:52:11.144Z,94.22
2023-02-11T20:54:41.808Z,94.48
2023-02-11T20:57:12.468Z,94.43
2023-02-11T20:59:43.092Z,94.47
2023-02-11T21:02:13.657Z,94.75
2023-02-11T21:04:44.344Z,94.70
2023-02-11T21:07:14.876Z,94.83
2023-02-11T21:09:45.425Z,95.00
2023-02-11T21:12:15.869Z,95.04
2023-02-11T21:14:46.823Z,95.27
2023-02-11T21:17:17.352Z,95.03
2023-02-11T21:19:47.818Z,95.07
2023-02-11T21:22:18.348Z,95.21
2023-02-11T21:24:48.769Z,95.06
2023-02-11T21:27:19.074Z,95.52
2023-02-11T21:29:54.691Z,95.59
2023-02-11T21:32:25.413Z,95.34
2023-02-11T21:34:55.865Z,95.60
2023-02-11T21:37:26.488Z,95.42
2023-02-11T21:39:56.957Z,95.54
2023-02-11T21:42:27.380Z,95.72
2023-02-11T21:44:57.743Z,96.19
2023-02-11T21:47:28.141Z,96.13
2023-02-11T21:49:58.438Z,96.27
2023-02-11T21:52:28.878Z,96.45
2023-02-11T21:54:59.318Z,96.36
2023-02-11T21:57:30.343Z,96.47
2023-02-11T22:00:01.003Z,96.47
2023-02-11T22:02:31.396Z,96.84
2023-02-11T22:05:02.086Z,96.44
2023-02-11T22:07:32.425Z,96.63
2023-02-11T22:10:03.079Z,96.47
2023-02-11T22:12:33.432Z,96.39
2023-02-11T22:15:03.791Z,96.60
2023-02-11T22:17:34.576Z,96.89
2023-02-11T22:20:05.329Z,96.80
2023-02-11T22:22:35.805Z,96.92
2023-02-11T22:25:06.488Z,96.79
2023-02-11T22:27:36.872Z,96.79
2023-02-11T22:30:09.536Z,96.81
2023-02-11T22:32:39.883Z,96.87
2023-02-11T22:35:10.468Z,96.86
2023-02-11T22:37:40.754Z,96.88
2023-02-11T22:40:13.069Z,96.84
2023-02-11T22:42:43.464Z,97.23
2023-02-11T22:45:13.681Z,97.23
2023-02-11T22:47:44.247Z,97.15
2023-02-11T22:50:14.896Z,97.67
2023-02-11T22:52:45.275Z,97.81
2023-02-11T22:55:15.922Z,98.00
2023-02-11T22:57:46.353Z,97.93
2023-02-11T23:00:18.981Z,98.03
2023-02-11T23:02:50.514Z,98.09
2023-02-11T23:05:19.691Z,98.16
2023-02-11T23:07:50.291Z,98.21
2023-02-11T23:10:20.910Z,98.33
2023-02-11T23:12:51.247Z,98.49
2023-02-11T23:15:21.578Z,98.67
2023-02-11T23:17:51.890Z,98.85
2023-02-11T23:20:22.603Z,99.29
2023-02-11T23:22:52.972Z,98.78
2023-02-11T23:25:23.344Z,99.00
2023-02-11T23:27:53.598Z,99.20
2023-02-11T23:30:25.102Z,99.18
2023-02-11T23:32:55.414Z,99.03
2023-02-11T23:35:26.064Z,98.96
2023-02-11T23:37:56.682Z,99.23
2023-02-11T23:40:27.032Z,98.99
2023-02-11T23:42:57.429Z,99.16
2023-02-11T23:45:27.793Z,99.07
2023-02-11T23:47:58.175Z,99.33
2023-02-11T23:50:28.575Z,99.41
2023-02-11T23:52:58.940Z,99.37
2023-02-11T23:55:29.444Z,99.01
2023-02-11T23:57:59.784Z,99.18
